sensor_id;sensor_type;location;lat;lon;timestamp;temperature;humidity
14924;DHT22;7554;43.600;1.480;2023-11-18T00:00:59;9.10;1.00
14924;DHT22;7554;43.600;1.480;2023-11-18T00:03:27;9.10;1.00
14924;DHT22;7554;43.600;1.480;2023-11-18T00:05:54;9.10;1.00
14924;DHT22;7554;43.600;1.480;2023-11-18T00:08:22;9.10;1.00
14924;DHT22;7554;43.600;1.480;2023-11-18T00:10:50;9.20;1.00
14924;DHT22;7554;43.600;1.480;2023-11-18T00:13:17;9.20;1.00
14924;DHT22;7554;43.600;1.480;2023-11-18T00:15:45;9.30;1.00
14924;DHT22;7554;43.600;1.480;2023-11-18T00:18:13;9.30;1.00
14924;DHT22;7554;43.600;1.480;2023-11-18T00:20:41;9.30;1.00
14924;DHT22;7554;43.600;1.480;2023-11-18T00:23:08;9.30;1.00
14924;DHT22;7554;43.600;1.480;2023-11-18T00:25:37;9.30;1.00
14924;DHT22;7554;43.600;1.480;2023-11-18T00:28:05;9.30;1.00
14924;DHT22;7554;43.600;1.480;2023-11-18T00:30:33;9.20;1.00
14924;DHT22;7554;43.600;1.480;2023-11-18T00:33:00;9.10;1.00
14924;DHT22;7554;43.600;1.480;2023-11-18T00:35:27;9.10;1.00
14924;DHT22;7554;43.600;1.480;2023-11-18T00:37:57;9.10;1.00
14924;DHT22;7554;43.600;1.480;2023-11-18T00:40:25;9.10;1.00
14924;DHT22;7554;43.600;1.480;2023-11-18T00:42:56;9.10;1.00
14924;DHT22;7554;43.600;1.480;2023-11-18T00:45:24;9.10;1.00
14924;DHT22;7554;43.600;1.480;2023-11-18T00:47:51;9.10;1.00
14924;DHT22;7554;43.600;1.480;2023-11-18T00:50:18;9.00;1.00
14924;DHT22;7554;43.600;1.480;2023-11-18T00:52:45;9.00;1.00
14924;DHT22;7554;43.600;1.480;2023-11-18T00:55:14;9.10;1.00
14924;DHT22;7554;43.600;1.480;2023-11-18T00:57:43;9.10;1.00
14924;DHT22;7554;43.600;1.480;2023-11-18T01:00:14;9.10;1.00
14924;DHT22;7554;43.600;1.480;2023-11-18T01:02:42;9.10;1.00
14924;DHT22;7554;43.600;1.480;2023-11-18T01:05:09;9.20;1.00
14924;DHT22;7554;43.600;1.480;2023-11-18T01:07:37;9.20;1.00
14924;DHT22;7554;43.600;1.480;2023-11-18T01:10:04;9.30;1.00
14924;DHT22;7554;43.600;1.480;2023-11-18T01:12:32;9.30;1.00
14924;DHT22;7554;43.600;1.480;2023-11-18T01:14:59;9.40;1.00
14924;DHT22;7554;43.600;1.480;2023-11-18T01:17:28;9.40;1.00
14924;DHT22;7554;43.600;1.480;2023-11-18T01:19:57;9.50;1.00
14924;DHT22;7554;43.600;1.480;2023-11-18T01:22:24;9.50;1.00
14924;DHT22;7554;43.600;1.480;2023-11-18T01:24:52;9.40;1.00
14924;DHT22;7554;43.600;1.480;2023-11-18T01:27:19;9.40;1.00
14924;DHT22;7554;43.600;1.480;2023-11-18T01:29:48;9.30;1.00
14924;DHT22;7554;43.600;1.480;2023-11-18T01:32:16;9.20;1.00
14924;DHT22;7554;43.600;1.480;2023-11-18T01:34:46;9.10;1.00
14924;DHT22;7554;43.600;1.480;2023-11-18T01:37:16;9.00;1.00
14924;DHT22;7554;43.600;1.480;2023-11-18T01:39:43;8.90;1.00
14924;DHT22;7554;43.600;1.480;2023-11-18T01:42:11;8.90;1.00
14924;DHT22;7554;43.600;1.480;2023-11-18T01:44:38;8.90;1.00
14924;DHT22;7554;43.600;1.480;2023-11-18T01:47:07;8.80;1.00
14924;DHT22;7554;43.600;1.480;2023-11-18T01:49:37;8.80;1.00
14924;DHT22;7554;43.600;1.480;2023-11-18T01:52:07;8.80;1.00
14924;DHT22;7554;43.600;1.480;2023-11-18T01:54:36;8.70;1.00
14924;DHT22;7554;43.600;1.480;2023-11-18T01:57:05;8.70;1.00
14924;DHT22;7554;43.600;1.480;2023-11-18T01:59:36;8.70;1.00
14924;DHT22;7554;43.600;1.480;2023-11-18T02:02:06;8.70;1.00
14924;DHT22;7554;43.600;1.480;2023-11-18T02:04:33;8.60;1.00
14924;DHT22;7554;43.600;1.480;2023-11-18T02:07:00;8.50;1.00
14924;DHT22;7554;43.600;1.480;2023-11-18T02:09:36;8.50;1.00
14924;DHT22;7554;43.600;1.480;2023-11-18T02:12:12;8.50;1.00
14924;DHT22;7554;43.600;1.480;2023-11-18T02:14:43;8.60;1.00
14924;DHT22;7554;43.600;1.480;2023-11-18T02:17:14;8.60;1.00
14924;DHT22;7554;43.600;1.480;2023-11-18T02:19:43;8.50;1.00
14924;DHT22;7554;43.600;1.480;2023-11-18T02:22:12;8.40;1.00
14924;DHT22;7554;43.600;1.480;2023-11-18T02:24:41;8.40;1.00
14924;DHT22;7554;43.600;1.480;2023-11-18T02:27:09;8.40;1.00
14924;DHT22;7554;43.600;1.480;2023-11-18T02:29:42;8.40;1.00
14924;DHT22;7554;43.600;1.480;2023-11-18T02:32:20;8.40;1.00
14924;DHT22;7554;43.600;1.480;2023-11-18T02:34:56;8.40;1.00
14924;DHT22;7554;43.600;1.480;2023-11-18T02:37:25;8.30;1.00
14924;DHT22;7554;43.600;1.480;2023-11-18T02:40:03;8.30;1.00
14924;DHT22;7554;43.600;1.480;2023-11-18T02:42:36;8.30;1.00
14924;DHT22;7554;43.600;1.480;2023-11-18T02:45:06;8.30;1.00
14924;DHT22;7554;43.600;1.480;2023-11-18T02:47:34;8.30;1.00
14924;DHT22;7554;43.600;1.480;2023-11-18T02:50:02;8.30;1.00
14924;DHT22;7554;43.600;1.480;2023-11-18T02:52:31;8.40;1.00
14924;DHT22;7554;43.600;1.480;2023-11-18T02:54:59;8.40;1.00
14924;DHT22;7554;43.600;1.480;2023-11-18T02:57:26;8.40;1.00
14924;DHT22;7554;43.600;1.480;2023-11-18T02:59:55;8.50;1.00
14924;DHT22;7554;43.600;1.480;2023-11-18T03:02:23;8.60;1.00
14924;DHT22;7554;43.600;1.480;2023-11-18T03:04:53;8.70;1.00
14924;DHT22;7554;43.600;1.480;2023-11-18T03:07:20;8.70;1.00
14924;DHT22;7554;43.600;1.480;2023-11-18T03:09:48;8.70;1.00
14924;DHT22;7554;43.600;1.480;2023-11-18T03:12:15;8.70;1.00
14924;DHT22;7554;43.600;1.480;2023-11-18T03:14:42;8.70;1.00
14924;DHT22;7554;43.600;1.480;2023-11-18T03:17:11;8.70;1.00
14924;DHT22;7554;43.600;1.480;2023-11-18T03:19:39;8.70;1.00
14924;DHT22;7554;43.600;1.480;2023-11-18T03:22:07;8.60;1.00
14924;DHT22;7554;43.600;1.480;2023-11-18T03:24:34;8.60;1.00
14924;DHT22;7554;43.600;1.480;2023-11-18T03:27:02;8.60;1.00
14924;DHT22;7554;43.600;1.480;2023-11-18T03:29:29;8.60;1.00
14924;DHT22;7554;43.600;1.480;2023-11-18T03:31:56;8.50;1.00
14924;DHT22;7554;43.600;1.480;2023-11-18T03:34:25;8.50;1.00
14924;DHT22;7554;43.600;1.480;2023-11-18T03:36:53;8.40;1.00
14924;DHT22;7554;43.600;1.480;2023-11-18T03:39:23;8.40;1.00
14924;DHT22;7554;43.600;1.480;2023-11-18T03:41:50;8.30;1.00
14924;DHT22;7554;43.600;1.480;2023-11-18T03:44:18;8.30;1.00
14924;DHT22;7554;43.600;1.480;2023-11-18T03:46:45;8.30;1.00
14924;DHT22;7554;43.600;1.480;2023-11-18T03:49:12;8.30;1.00
14924;DHT22;7554;43.600;1.480;2023-11-18T03:51:41;8.30;1.00
14924;DHT22;7554;43.600;1.480;2023-11-18T03:54:08;8.30;1.00
14924;DHT22;7554;43.600;1.480;2023-11-18T03:56:35;8.20;1.00
14924;DHT22;7554;43.600;1.480;2023-11-18T03:59:03;8.20;1.00
14924;DHT22;7554;43.600;1.480;2023-11-18T04:01:31;8.20;1.00
14924;DHT22;7554;43.600;1.480;2023-11-18T04:03:58;8.20;1.00
14924;DHT22;7554;43.600;1.480;2023-11-18T04:06:25;8.20;1.00
14924;DHT22;7554;43.600;1.480;2023-11-18T04:08:54;8.30;1.00
14924;DHT22;7554;43.600;1.480;2023-11-18T04:11:21;8.30;1.00
14924;DHT22;7554;43.600;1.480;2023-11-18T04:13:49;8.30;1.00
14924;DHT22;7554;43.600;1.480;2023-11-18T04:16:16;8.30;1.00
14924;DHT22;7554;43.600;1.480;2023-11-18T04:18:45;8.30;1.00
14924;DHT22;7554;43.600;1.480;2023-11-18T04:21:12;8.30;1.00
14924;DHT22;7554;43.600;1.480;2023-11-18T04:23:42;8.30;1.00
14924;DHT22;7554;43.600;1.480;2023-11-18T04:26:11;8.20;1.00
14924;DHT22;7554;43.600;1.480;2023-11-18T04:28:38;8.20;1.00
14924;DHT22;7554;43.600;1.480;2023-11-18T04:31:06;8.20;1.00
14924;DHT22;7554;43.600;1.480;2023-11-18T04:33:33;8.10;1.00
14924;DHT22;7554;43.600;1.480;2023-11-18T04:36:00;8.10;1.00
14924;DHT22;7554;43.600;1.480;2023-11-18T04:38:28;8.10;1.00
14924;DHT22;7554;43.600;1.480;2023-11-18T04:40:56;8.00;1.00
14924;DHT22;7554;43.600;1.480;2023-11-18T04:43:24;8.00;1.00
14924;DHT22;7554;43.600;1.480;2023-11-18T04:45:51;7.90;1.00
14924;DHT22;7554;43.600;1.480;2023-11-18T04:48:20;7.90;1.00
14924;DHT22;7554;43.600;1.480;2023-11-18T04:50:48;8.00;1.00
14924;DHT22;7554;43.600;1.480;2023-11-18T04:53:15;8.10;1.00
14924;DHT22;7554;43.600;1.480;2023-11-18T04:55:42;8.10;1.00
14924;DHT22;7554;43.600;1.480;2023-11-18T04:58:10;8.10;1.00
14924;DHT22;7554;43.600;1.480;2023-11-18T05:00:39;8.00;1.00
14924;DHT22;7554;43.600;1.480;2023-11-18T05:03:07;8.00;1.00
14924;DHT22;7554;43.600;1.480;2023-11-18T05:05:36;8.00;1.00
14924;DHT22;7554;43.600;1.480;2023-11-18T05:08:04;8.00;1.00
14924;DHT22;7554;43.600;1.480;2023-11-18T05:10:34;8.00;1.00
14924;DHT22;7554;43.600;1.480;2023-11-18T05:13:02;8.10;1.00
14924;DHT22;7554;43.600;1.480;2023-11-18T05:15:29;8.10;1.00
14924;DHT22;7554;43.600;1.480;2023-11-18T05:17:58;8.20;1.00
14924;DHT22;7554;43.600;1.480;2023-11-18T05:20:26;8.30;1.00
14924;DHT22;7554;43.600;1.480;2023-11-18T05:22:53;8.30;1.00
14924;DHT22;7554;43.600;1.480;2023-11-18T05:25:21;8.30;1.00
14924;DHT22;7554;43.600;1.480;2023-11-18T05:27:48;8.30;1.00
14924;DHT22;7554;43.600;1.480;2023-11-18T05:30:15;8.30;1.00
14924;DHT22;7554;43.600;1.480;2023-11-18T05:32:43;8.30;1.00
14924;DHT22;7554;43.600;1.480;2023-11-18T05:35:12;8.30;1.00
14924;DHT22;7554;43.600;1.480;2023-11-18T05:37:40;8.30;1.00
14924;DHT22;7554;43.600;1.480;2023-11-18T05:40:08;8.30;1.00
14924;DHT22;7554;43.600;1.480;2023-11-18T05:42:37;8.30;1.00
14924;DHT22;7554;43.600;1.480;2023-11-18T05:45:08;8.30;1.00
14924;DHT22;7554;43.600;1.480;2023-11-18T05:47:43;8.30;1.00
14924;DHT22;7554;43.600;1.480;2023-11-18T05:50:11;8.30;1.00
14924;DHT22;7554;43.600;1.480;2023-11-18T05:52:40;8.20;1.00
14924;DHT22;7554;43.600;1.480;2023-11-18T05:55:08;8.10;1.00
14924;DHT22;7554;43.600;1.480;2023-11-18T05:57:36;8.10;1.00
14924;DHT22;7554;43.600;1.480;2023-11-18T06:00:04;8.00;1.00
14924;DHT22;7554;43.600;1.480;2023-11-18T06:02:34;7.90;1.00
14924;DHT22;7554;43.600;1.480;2023-11-18T06:05:05;7.90;1.00
14924;DHT22;7554;43.600;1.480;2023-11-18T06:07:35;7.80;1.00
14924;DHT22;7554;43.600;1.480;2023-11-18T06:10:02;7.80;1.00
14924;DHT22;7554;43.600;1.480;2023-11-18T06:12:31;7.80;1.00
14924;DHT22;7554;43.600;1.480;2023-11-18T06:14:58;7.80;1.00
14924;DHT22;7554;43.600;1.480;2023-11-18T06:17:27;7.70;1.00
14924;DHT22;7554;43.600;1.480;2023-11-18T06:19:54;7.70;1.00
14924;DHT22;7554;43.600;1.480;2023-11-18T06:22:22;7.70;1.00
14924;DHT22;7554;43.600;1.480;2023-11-18T06:24:50;7.60;1.00
14924;DHT22;7554;43.600;1.480;2023-11-18T06:27:18;7.60;1.00
14924;DHT22;7554;43.600;1.480;2023-11-18T06:29:49;7.60;1.00
14924;DHT22;7554;43.600;1.480;2023-11-18T06:32:20;7.60;1.00
14924;DHT22;7554;43.600;1.480;2023-11-18T06:34:47;7.60;1.00
14924;DHT22;7554;43.600;1.480;2023-11-18T06:37:15;7.60;1.00
14924;DHT22;7554;43.600;1.480;2023-11-18T06:39:43;7.60;1.00
14924;DHT22;7554;43.600;1.480;2023-11-18T06:42:14;7.60;1.00
14924;DHT22;7554;43.600;1.480;2023-11-18T06:44:42;7.50;1.00
14924;DHT22;7554;43.600;1.480;2023-11-18T06:47:09;7.60;1.00
14924;DHT22;7554;43.600;1.480;2023-11-18T06:49:38;7.60;1.00
14924;DHT22;7554;43.600;1.480;2023-11-18T06:52:06;7.60;1.00
14924;DHT22;7554;43.600;1.480;2023-11-18T06:54:37;7.60;1.00
14924;DHT22;7554;43.600;1.480;2023-11-18T06:57:07;7.70;1.00
14924;DHT22;7554;43.600;1.480;2023-11-18T06:59:36;8.20;1.00
14924;DHT22;7554;43.600;1.480;2023-11-18T07:02:03;8.70;1.00
14924;DHT22;7554;43.600;1.480;2023-11-18T07:04:31;9.30;1.00
14924;DHT22;7554;43.600;1.480;2023-11-18T07:06:59;10.00;1.00
14924;DHT22;7554;43.600;1.480;2023-11-18T07:09:27;9.60;1.00
14924;DHT22;7554;43.600;1.480;2023-11-18T07:11:55;9.80;1.00
14924;DHT22;7554;43.600;1.480;2023-11-18T07:14:22;10.80;1.00
14924;DHT22;7554;43.600;1.480;2023-11-18T07:16:53;11.80;1.00
14924;DHT22;7554;43.600;1.480;2023-11-18T07:19:20;12.40;1.00
14924;DHT22;7554;43.600;1.480;2023-11-18T07:21:48;12.60;1.00
14924;DHT22;7554;43.600;1.480;2023-11-18T07:24:16;12.40;1.00
14924;DHT22;7554;43.600;1.480;2023-11-18T07:26:44;12.40;1.00
14924;DHT22;7554;43.600;1.480;2023-11-18T07:29:12;12.70;1.00
14924;DHT22;7554;43.600;1.480;2023-11-18T07:31:39;12.80;1.00
14924;DHT22;7554;43.600;1.480;2023-11-18T07:34:08;12.10;1.00
14924;DHT22;7554;43.600;1.480;2023-11-18T07:36:35;11.20;1.00
14924;DHT22;7554;43.600;1.480;2023-11-18T07:39:03;11.00;1.00
14924;DHT22;7554;43.600;1.480;2023-11-18T07:41:31;10.90;1.00
14924;DHT22;7554;43.600;1.480;2023-11-18T07:43:58;10.80;1.00
14924;DHT22;7554;43.600;1.480;2023-11-18T07:46:26;10.90;1.00
14924;DHT22;7554;43.600;1.480;2023-11-18T07:48:54;10.90;1.00
14924;DHT22;7554;43.600;1.480;2023-11-18T07:51:24;11.00;1.00
14924;DHT22;7554;43.600;1.480;2023-11-18T07:53:51;11.10;1.00
14924;DHT22;7554;43.600;1.480;2023-11-18T07:56:18;11.00;1.00
14924;DHT22;7554;43.600;1.480;2023-11-18T07:58:48;11.00;1.00
14924;DHT22;7554;43.600;1.480;2023-11-18T08:01:17;11.10;1.00
14924;DHT22;7554;43.600;1.480;2023-11-18T08:03:44;11.00;1.00
14924;DHT22;7554;43.600;1.480;2023-11-18T08:06:13;11.20;1.00
14924;DHT22;7554;43.600;1.480;2023-11-18T08:08:42;11.20;1.00
14924;DHT22;7554;43.600;1.480;2023-11-18T08:11:11;11.30;1.00
14924;DHT22;7554;43.600;1.480;2023-11-18T08:13:38;11.30;1.00
14924;DHT22;7554;43.600;1.480;2023-11-18T08:16:06;11.30;1.00
14924;DHT22;7554;43.600;1.480;2023-11-18T08:18:34;11.20;1.00
14924;DHT22;7554;43.600;1.480;2023-11-18T08:21:01;11.00;1.00
14924;DHT22;7554;43.600;1.480;2023-11-18T08:23:30;11.00;1.00
14924;DHT22;7554;43.600;1.480;2023-11-18T08:26:00;11.00;1.00
14924;DHT22;7554;43.600;1.480;2023-11-18T08:28:27;11.00;1.00
14924;DHT22;7554;43.600;1.480;2023-11-18T08:30:54;11.10;1.00
14924;DHT22;7554;43.600;1.480;2023-11-18T08:33:22;10.90;1.00
14924;DHT22;7554;43.600;1.480;2023-11-18T08:35:50;11.00;1.00
14924;DHT22;7554;43.600;1.480;2023-11-18T08:38:17;11.20;1.00
14924;DHT22;7554;43.600;1.480;2023-11-18T08:40:45;11.30;1.00
14924;DHT22;7554;43.600;1.480;2023-11-18T08:43:15;11.20;1.00
14924;DHT22;7554;43.600;1.480;2023-11-18T08:45:42;11.20;1.00
14924;DHT22;7554;43.600;1.480;2023-11-18T08:48:10;11.20;1.00
14924;DHT22;7554;43.600;1.480;2023-11-18T08:50:38;11.20;1.00
14924;DHT22;7554;43.600;1.480;2023-11-18T08:53:06;11.30;1.00
14924;DHT22;7554;43.600;1.480;2023-11-18T08:55:35;11.20;1.00
14924;DHT22;7554;43.600;1.480;2023-11-18T08:58:06;11.00;1.00
14924;DHT22;7554;43.600;1.480;2023-11-18T09:00:47;10.90;1.00
14924;DHT22;7554;43.600;1.480;2023-11-18T09:03:20;11.00;1.00
14924;DHT22;7554;43.600;1.480;2023-11-18T09:06:02;11.10;1.00
14924;DHT22;7554;43.600;1.480;2023-11-18T09:08:31;11.30;1.00
14924;DHT22;7554;43.600;1.480;2023-11-18T09:11:01;11.50;1.00
14924;DHT22;7554;43.600;1.480;2023-11-18T09:13:28;11.50;1.00
14924;DHT22;7554;43.600;1.480;2023-11-18T09:15:59;11.50;1.00
14924;DHT22;7554;43.600;1.480;2023-11-18T09:18:29;11.50;1.00
14924;DHT22;7554;43.600;1.480;2023-11-18T09:20:58;11.60;1.00
14924;DHT22;7554;43.600;1.480;2023-11-18T09:23:28;11.60;1.00
14924;DHT22;7554;43.600;1.480;2023-11-18T09:25:55;11.60;1.00
14924;DHT22;7554;43.600;1.480;2023-11-18T09:28:24;11.60;1.00
14924;DHT22;7554;43.600;1.480;2023-11-18T09:30:54;11.60;1.00
14924;DHT22;7554;43.600;1.480;2023-11-18T09:33:25;11.60;1.00
14924;DHT22;7554;43.600;1.480;2023-11-18T09:35:55;11.60;1.00
14924;DHT22;7554;43.600;1.480;2023-11-18T09:38:28;11.80;1.00
14924;DHT22;7554;43.600;1.480;2023-11-18T09:40:56;11.80;1.00
14924;DHT22;7554;43.600;1.480;2023-11-18T09:43:28;11.90;1.00
14924;DHT22;7554;43.600;1.480;2023-11-18T09:46:03;11.90;1.00
14924;DHT22;7554;43.600;1.480;2023-11-18T09:48:35;12.00;1.00
14924;DHT22;7554;43.600;1.480;2023-11-18T09:51:07;12.10;1.00
14924;DHT22;7554;43.600;1.480;2023-11-18T09:53:37;12.10;1.00
14924;DHT22;7554;43.600;1.480;2023-11-18T09:56:08;12.20;1.00
14924;DHT22;7554;43.600;1.480;2023-11-18T09:58:50;12.20;1.00
14924;DHT22;7554;43.600;1.480;2023-11-18T10:01:25;12.30;1.00
14924;DHT22;7554;43.600;1.480;2023-11-18T10:03:55;12.40;1.00
14924;DHT22;7554;43.600;1.480;2023-11-18T10:06:24;12.50;1.00
14924;DHT22;7554;43.600;1.480;2023-11-18T10:08:54;12.50;1.00
14924;DHT22;7554;43.600;1.480;2023-11-18T10:11:22;12.60;1.00
14924;DHT22;7554;43.600;1.480;2023-11-18T10:13:49;12.70;1.00
14924;DHT22;7554;43.600;1.480;2023-11-18T10:16:17;12.70;1.00
14924;DHT22;7554;43.600;1.480;2023-11-18T10:18:45;12.90;1.00
14924;DHT22;7554;43.600;1.480;2023-11-18T10:21:16;13.00;1.00
14924;DHT22;7554;43.600;1.480;2023-11-18T10:24:00;13.00;1.00
14924;DHT22;7554;43.600;1.480;2023-11-18T10:26:28;13.10;1.00
14924;DHT22;7554;43.600;1.480;2023-11-18T10:29:03;13.20;1.00
14924;DHT22;7554;43.600;1.480;2023-11-18T10:31:33;13.30;1.00
14924;DHT22;7554;43.600;1.480;2023-11-18T10:34:02;13.40;1.00
14924;DHT22;7554;43.600;1.480;2023-11-18T10:36:31;13.50;1.00
14924;DHT22;7554;43.600;1.480;2023-11-18T10:38:59;13.50;1.00
14924;DHT22;7554;43.600;1.480;2023-11-18T10:41:40;13.50;1.00
14924;DHT22;7554;43.600;1.480;2023-11-18T10:44:09;13.60;1.00
14924;DHT22;7554;43.600;1.480;2023-11-18T10:46:41;13.60;1.00
14924;DHT22;7554;43.600;1.480;2023-11-18T10:49:08;13.70;1.00
14924;DHT22;7554;43.600;1.480;2023-11-18T10:51:39;13.80;1.00
14924;DHT22;7554;43.600;1.480;2023-11-18T10:54:07;13.90;1.00
14924;DHT22;7554;43.600;1.480;2023-11-18T10:56:47;14.00;1.00
14924;DHT22;7554;43.600;1.480;2023-11-18T10:59:14;14.00;1.00
14924;DHT22;7554;43.600;1.480;2023-11-18T11:01:44;14.00;1.00
14924;DHT22;7554;43.600;1.480;2023-11-18T11:04:15;14.10;1.00
14924;DHT22;7554;43.600;1.480;2023-11-18T11:06:49;14.20;1.00
14924;DHT22;7554;43.600;1.480;2023-11-18T11:09:19;14.30;1.00
14924;DHT22;7554;43.600;1.480;2023-11-18T11:11:54;14.20;1.00
14924;DHT22;7554;43.600;1.480;2023-11-18T11:14:23;14.20;1.00
14924;DHT22;7554;43.600;1.480;2023-11-18T11:17:05;14.30;1.00
14924;DHT22;7554;43.600;1.480;2023-11-18T11:19:57;14.50;1.00
14924;DHT22;7554;43.600;1.480;2023-11-18T11:22:40;14.50;1.00
14924;DHT22;7554;43.600;1.480;2023-11-18T11:25:16;14.50;1.00
14924;DHT22;7554;43.600;1.480;2023-11-18T11:27:56;14.70;1.00
14924;DHT22;7554;43.600;1.480;2023-11-18T11:30:29;14.70;1.00
14924;DHT22;7554;43.600;1.480;2023-11-18T11:33:12;14.90;1.00
14924;DHT22;7554;43.600;1.480;2023-11-18T11:35:48;15.00;1.00
14924;DHT22;7554;43.600;1.480;2023-11-18T11:38:17;15.00;1.00
14924;DHT22;7554;43.600;1.480;2023-11-18T11:40:46;15.00;1.00
14924;DHT22;7554;43.600;1.480;2023-11-18T11:43:13;15.00;1.00
14924;DHT22;7554;43.600;1.480;2023-11-18T11:45:47;14.90;1.00
14924;DHT22;7554;43.600;1.480;2023-11-18T11:48:15;15.00;1.00
14924;DHT22;7554;43.600;1.480;2023-11-18T11:51:07;14.90;1.00
14924;DHT22;7554;43.600;1.480;2023-11-18T11:53:45;15.00;1.00
14924;DHT22;7554;43.600;1.480;2023-11-18T11:56:14;15.10;1.00
14924;DHT22;7554;43.600;1.480;2023-11-18T11:58:50;15.10;1.00
14924;DHT22;7554;43.600;1.480;2023-11-18T12:01:25;15.20;1.00
14924;DHT22;7554;43.600;1.480;2023-11-18T12:03:58;15.30;1.00
14924;DHT22;7554;43.600;1.480;2023-11-18T12:06:31;15.30;1.00
14924;DHT22;7554;43.600;1.480;2023-11-18T12:09:03;15.30;1.00
14924;DHT22;7554;43.600;1.480;2023-11-18T12:11:34;15.30;1.00
14924;DHT22;7554;43.600;1.480;2023-11-18T12:14:06;15.40;1.00
14924;DHT22;7554;43.600;1.480;2023-11-18T12:16:58;15.40;1.00
14924;DHT22;7554;43.600;1.480;2023-11-18T12:19:34;15.40;1.00
14924;DHT22;7554;43.600;1.480;2023-11-18T12:22:11;15.40;1.00
14924;DHT22;7554;43.600;1.480;2023-11-18T12:27:57;15.50;1.00
14924;DHT22;7554;43.600;1.480;2023-11-18T12:30:41;15.60;1.00
14924;DHT22;7554;43.600;1.480;2023-11-18T12:33:23;15.60;1.00
14924;DHT22;7554;43.600;1.480;2023-11-18T12:42:34;15.80;1.00
14924;DHT22;7554;43.600;1.480;2023-11-18T12:45:34;15.80;1.00
14924;DHT22;7554;43.600;1.480;2023-11-18T12:48:14;15.90;1.00
14924;DHT22;7554;43.600;1.480;2023-11-18T12:50:42;15.90;1.00
14924;DHT22;7554;43.600;1.480;2023-11-18T12:53:11;16.10;1.00
14924;DHT22;7554;43.600;1.480;2023-11-18T12:55:41;16.20;1.00
14924;DHT22;7554;43.600;1.480;2023-11-18T12:58:10;16.20;1.00
14924;DHT22;7554;43.600;1.480;2023-11-18T13:00:40;16.10;1.00
14924;DHT22;7554;43.600;1.480;2023-11-18T13:03:10;16.30;1.00
14924;DHT22;7554;43.600;1.480;2023-11-18T13:05:41;16.30;1.00
14924;DHT22;7554;43.600;1.480;2023-11-18T13:08:11;16.40;1.00
14924;DHT22;7554;43.600;1.480;2023-11-18T13:10:41;16.50;1.00
14924;DHT22;7554;43.600;1.480;2023-11-18T13:13:13;16.50;1.00
14924;DHT22;7554;43.600;1.480;2023-11-18T13:15:43;16.40;1.00
14924;DHT22;7554;43.600;1.480;2023-11-18T13:18:10;16.30;1.00
14924;DHT22;7554;43.600;1.480;2023-11-18T13:20:38;16.20;1.00
14924;DHT22;7554;43.600;1.480;2023-11-18T13:23:09;16.30;1.00
14924;DHT22;7554;43.600;1.480;2023-11-18T13:25:36;16.40;1.00
14924;DHT22;7554;43.600;1.480;2023-11-18T13:28:05;16.40;1.00
14924;DHT22;7554;43.600;1.480;2023-11-18T13:30:34;16.50;1.00
14924;DHT22;7554;43.600;1.480;2023-11-18T13:33:01;16.50;1.00
14924;DHT22;7554;43.600;1.480;2023-11-18T13:35:29;16.50;1.00
14924;DHT22;7554;43.600;1.480;2023-11-18T13:37:56;16.50;1.00
14924;DHT22;7554;43.600;1.480;2023-11-18T13:40:24;16.40;1.00
14924;DHT22;7554;43.600;1.480;2023-11-18T13:43:01;16.40;1.00
14924;DHT22;7554;43.600;1.480;2023-11-18T13:45:31;16.40;1.00
14924;DHT22;7554;43.600;1.480;2023-11-18T13:48:00;16.50;1.00
14924;DHT22;7554;43.600;1.480;2023-11-18T13:50:27;16.60;1.00
14924;DHT22;7554;43.600;1.480;2023-11-18T13:52:56;16.50;1.00
14924;DHT22;7554;43.600;1.480;2023-11-18T13:55:24;16.40;1.00
14924;DHT22;7554;43.600;1.480;2023-11-18T13:57:54;16.30;1.00
14924;DHT22;7554;43.600;1.480;2023-11-18T14:00:25;16.30;1.00
14924;DHT22;7554;43.600;1.480;2023-11-18T14:02:54;16.30;1.00
14924;DHT22;7554;43.600;1.480;2023-11-18T14:05:24;16.30;1.00
14924;DHT22;7554;43.600;1.480;2023-11-18T14:07:52;16.20;1.00
14924;DHT22;7554;43.600;1.480;2023-11-18T14:10:22;16.40;1.00
14924;DHT22;7554;43.600;1.480;2023-11-18T14:13:01;16.40;1.00
14924;DHT22;7554;43.600;1.480;2023-11-18T14:15:31;16.40;1.00
14924;DHT22;7554;43.600;1.480;2023-11-18T14:18:01;16.40;1.00
14924;DHT22;7554;43.600;1.480;2023-11-18T14:20:30;16.50;1.00
14924;DHT22;7554;43.600;1.480;2023-11-18T14:22:57;16.40;1.00
14924;DHT22;7554;43.600;1.480;2023-11-18T14:25:25;16.30;1.00
14924;DHT22;7554;43.600;1.480;2023-11-18T14:27:53;16.40;1.00
14924;DHT22;7554;43.600;1.480;2023-11-18T14:30:20;16.40;1.00
14924;DHT22;7554;43.600;1.480;2023-11-18T14:32:50;16.40;1.00
14924;DHT22;7554;43.600;1.480;2023-11-18T14:35:17;16.50;1.00
14924;DHT22;7554;43.600;1.480;2023-11-18T14:37:47;16.60;1.00
14924;DHT22;7554;43.600;1.480;2023-11-18T14:40:15;16.60;1.00
14924;DHT22;7554;43.600;1.480;2023-11-18T14:42:44;16.60;1.00
14924;DHT22;7554;43.600;1.480;2023-11-18T14:45:13;16.50;1.00
14924;DHT22;7554;43.600;1.480;2023-11-18T14:47:41;16.60;1.00
14924;DHT22;7554;43.600;1.480;2023-11-18T14:50:10;16.60;1.00
14924;DHT22;7554;43.600;1.480;2023-11-18T14:52:44;16.70;1.00
14924;DHT22;7554;43.600;1.480;2023-11-18T14:55:13;16.60;1.00
14924;DHT22;7554;43.600;1.480;2023-11-18T14:57:43;16.40;1.00
14924;DHT22;7554;43.600;1.480;2023-11-18T15:00:12;16.40;1.00
14924;DHT22;7554;43.600;1.480;2023-11-18T15:02:46;16.40;1.00
14924;DHT22;7554;43.600;1.480;2023-11-18T15:05:14;16.40;1.00
14924;DHT22;7554;43.600;1.480;2023-11-18T15:07:45;16.40;1.00
14924;DHT22;7554;43.600;1.480;2023-11-18T15:10:15;16.50;1.00
14924;DHT22;7554;43.600;1.480;2023-11-18T15:12:46;16.50;1.00
14924;DHT22;7554;43.600;1.480;2023-11-18T15:15:13;16.30;1.00
14924;DHT22;7554;43.600;1.480;2023-11-18T15:17:45;16.30;1.00
14924;DHT22;7554;43.600;1.480;2023-11-18T15:20:14;16.40;1.00
14924;DHT22;7554;43.600;1.480;2023-11-18T15:22:42;16.30;1.00
14924;DHT22;7554;43.600;1.480;2023-11-18T15:25:12;16.40;1.00
14924;DHT22;7554;43.600;1.480;2023-11-18T15:27:42;16.30;1.00
14924;DHT22;7554;43.600;1.480;2023-11-18T15:30:12;16.30;1.00
14924;DHT22;7554;43.600;1.480;2023-11-18T15:32:40;16.30;1.00
14924;DHT22;7554;43.600;1.480;2023-11-18T15:35:08;16.20;1.00
14924;DHT22;7554;43.600;1.480;2023-11-18T15:37:36;16.30;1.00
14924;DHT22;7554;43.600;1.480;2023-11-18T15:40:06;16.40;1.00
14924;DHT22;7554;43.600;1.480;2023-11-18T15:42:38;16.40;1.00
14924;DHT22;7554;43.600;1.480;2023-11-18T15:45:09;16.30;1.00
14924;DHT22;7554;43.600;1.480;2023-11-18T15:47:37;16.30;1.00
14924;DHT22;7554;43.600;1.480;2023-11-18T15:50:06;16.20;1.00
14924;DHT22;7554;43.600;1.480;2023-11-18T15:52:34;16.30;1.00
14924;DHT22;7554;43.600;1.480;2023-11-18T15:55:02;16.20;1.00
14924;DHT22;7554;43.600;1.480;2023-11-18T15:57:37;16.10;1.00
14924;DHT22;7554;43.600;1.480;2023-11-18T16:00:08;15.90;1.00
14924;DHT22;7554;43.600;1.480;2023-11-18T16:02:41;15.80;1.00
14924;DHT22;7554;43.600;1.480;2023-11-18T16:05:11;15.80;1.00
14924;DHT22;7554;43.600;1.480;2023-11-18T16:07:41;15.80;1.00
14924;DHT22;7554;43.600;1.480;2023-11-18T16:10:09;15.80;1.00
14924;DHT22;7554;43.600;1.480;2023-11-18T16:12:37;15.70;1.00
14924;DHT22;7554;43.600;1.480;2023-11-18T16:15:05;15.60;1.00
14924;DHT22;7554;43.600;1.480;2023-11-18T16:17:35;15.50;1.00
14924;DHT22;7554;43.600;1.480;2023-11-18T16:20:03;15.40;1.00
14924;DHT22;7554;43.600;1.480;2023-11-18T16:22:32;15.50;1.00
14924;DHT22;7554;43.600;1.480;2023-11-18T16:25:01;15.50;1.00
14924;DHT22;7554;43.600;1.480;2023-11-18T16:27:30;15.50;1.00
14924;DHT22;7554;43.600;1.480;2023-11-18T16:29:57;15.40;1.00
14924;DHT22;7554;43.600;1.480;2023-11-18T16:32:24;15.40;1.00
14924;DHT22;7554;43.600;1.480;2023-11-18T16:34:54;15.40;1.00